createdAt,value
2018-11-21T00:02:05.113Z,5.2
2018-11-21T00:05:04.956Z,5.4
2018-11-21T00:08:05.117Z,5.5
2018-11-21T00:11:05.199Z,5.4
2018-11-21T00:14:04.884Z,5.4
2018-11-21T00:17:05.083Z,5.9
2018-11-21T00:20:05.239Z,5.5
2018-11-21T00:23:05.156Z,5.3
2018-11-21T00:26:05.510Z,5.3
2018-11-21T00:29:05.102Z,5.1
2018-11-21T00:32:05.217Z,5.2
2018-11-21T00:35:04.982Z,5.2
2018-11-21T00:38:05.681Z,5.1
2018-11-21T00:41:05.159Z,5.1
2018-11-21T00:44:05.190Z,5.1
2018-11-21T00:47:05.422Z,5.3
2018-11-21T00:50:05.134Z,5
2018-11-21T00:53:05.103Z,5.3
2018-11-21T00:56:05.093Z,5.3
2018-11-21T00:59:05.170Z,5.2
2018-11-21T01:02:05.298Z,5.2
2018-11-21T01:05:05.197Z,5.5
2018-11-21T01:08:05.380Z,5.3
2018-11-21T01:11:05.204Z,5.3
2018-11-21T01:14:05.034Z,5.1
2018-11-21T01:17:04.930Z,5.4
2018-11-21T01:20:05.446Z,4.9
2018-11-21T01:23:05.410Z,5.1
2018-11-21T01:26:05.456Z,5.2
2018-11-21T01:29:05.153Z,5.3
2018-11-21T01:32:05.148Z,5.2
2018-11-21T01:35:05.121Z,5.3
2018-11-21T01:38:05.089Z,5.1
2018-11-21T01:41:05.065Z,5.2
2018-11-21T01:44:05.153Z,5
2018-11-21T01:47:04.967Z,5.2
2018-11-21T01:50:05.039Z,5
2018-11-21T01:53:05.213Z,5.2
2018-11-21T01:56:05.139Z,5
2018-11-21T01:59:05.336Z,5.3
2018-11-21T02:02:05.180Z,5.2
2018-11-21T02:05:05.859Z,5.1
2018-11-21T02:08:05.180Z,4.7
2018-11-21T02:11:05.612Z,4.9
2018-11-21T02:14:05.152Z,5.2
2018-11-21T02:17:05.245Z,4.7
2018-11-21T02:20:05.163Z,4.9
2018-11-21T02:23:05.130Z,5
2018-11-21T02:26:04.977Z,4.8
2018-11-21T02:29:05.064Z,4.9
2018-11-21T02:32:05.239Z,5
2018-11-21T02:35:05.448Z,4.8
2018-11-21T02:38:05.072Z,4.9
2018-11-21T02:41:05.264Z,5
2018-11-21T02:44:05.135Z,4.8
2018-11-21T02:47:05.184Z,4.8
2018-11-21T02:50:04.950Z,4.8
2018-11-21T02:53:04.992Z,5.3
2018-11-21T02:56:05.029Z,4.9
2018-11-21T02:59:04.869Z,4.9
2018-11-21T03:02:04.957Z,4.6
2018-11-21T03:05:04.998Z,5.2
2018-11-21T03:08:05.031Z,5.4
2018-11-21T03:11:05.100Z,5.1
2018-11-21T03:14:04.982Z,5.1
2018-11-21T03:17:05.077Z,5.2
2018-11-21T03:20:05.006Z,4.9
2018-11-21T03:23:05.071Z,5.8
2018-11-21T03:26:04.926Z,5.3
2018-11-21T03:29:05.046Z,4.8
2018-11-21T03:32:05.197Z,4.8
2018-11-21T03:35:05.347Z,4.6
2018-11-21T03:38:05.436Z,5.1
2018-11-21T03:41:05.362Z,5
2018-11-21T03:44:04.967Z,5
2018-11-21T03:47:05.109Z,5
2018-11-21T03:50:05.552Z,5
2018-11-21T03:53:04.991Z,4.9
2018-11-21T03:56:05.063Z,4.7
2018-11-21T03:59:04.998Z,5.2
2018-11-21T04:02:05.087Z,4.8
2018-11-21T04:05:05.071Z,4.7
2018-11-21T04:08:04.871Z,5
2018-11-21T04:11:05.221Z,4.9
2018-11-21T04:14:05.276Z,4.5
2018-11-21T04:17:05.051Z,4.7
2018-11-21T04:20:05.005Z,4.8
2018-11-21T04:23:05.367Z,4.8
2018-11-21T04:26:05.144Z,4.9
2018-11-21T04:29:05.102Z,4.8
2018-11-21T04:32:05.329Z,4.9
2018-11-21T04:35:04.944Z,4.9
2018-11-21T04:38:05.116Z,4.7
2018-11-21T04:41:05.309Z,4.9
2018-11-21T04:44:05.235Z,4.6
2018-11-21T04:47:04.992Z,4.6
2018-11-21T04:50:04.994Z,5.1
2018-11-21T04:53:05.238Z,4.4
2018-11-21T04:56:04.883Z,4.1
2018-11-21T04:59:05.155Z,4.7
2018-11-21T05:02:04.838Z,4.4
2018-11-21T05:05:04.933Z,4.5
2018-11-21T05:08:05.041Z,4.3
2018-11-21T05:11:04.997Z,4.4
2018-11-21T05:14:05.258Z,4.3
2018-11-21T05:17:05.433Z,4.1
2018-11-21T05:20:04.819Z,4.5
2018-11-21T05:23:04.917Z,4.2
2018-11-21T05:26:05.248Z,4.2
2018-11-21T05:29:04.853Z,4.3
2018-11-21T05:32:05.219Z,4.3
2018-11-21T05:35:05.345Z,3.9
2018-11-21T05:38:05.072Z,3.9
2018-11-21T05:41:04.934Z,4.3
2018-11-21T05:44:05.014Z,4.1
2018-11-21T05:47:04.924Z,4
2018-11-21T05:50:04.857Z,4.2
2018-11-21T05:53:05.313Z,3.9
2018-11-21T05:56:05.393Z,4.1
2018-11-21T05:59:04.923Z,4.2
2018-11-21T06:02:05.202Z,4
2018-11-21T06:05:04.915Z,3.9
2018-11-21T06:08:04.770Z,4.2
2018-11-21T06:11:05.300Z,4.1
2018-11-21T06:14:05.290Z,3.8
2018-11-21T06:17:05.316Z,5.3
2018-11-21T06:20:04.945Z,10.6
2018-11-21T06:23:04.793Z,7.3
2018-11-21T06:26:05.752Z,14
2018-11-21T06:29:05.479Z,8.4
2018-11-21T06:32:04.923Z,6.4
2018-11-21T06:35:04.927Z,4.5
2018-11-21T06:38:04.984Z,4.5
2018-11-21T06:41:05.060Z,6
2018-11-21T06:44:05.008Z,4.5
2018-11-21T06:47:05.075Z,4.7
2018-11-21T06:50:05.200Z,4.6
2018-11-21T06:53:05.806Z,6.6
2018-11-21T06:56:05.008Z,5.5
2018-11-21T06:59:05.469Z,4.3
2018-11-21T07:02:04.941Z,4.9
2018-11-21T07:05:05.043Z,4.4
2018-11-21T07:08:04.990Z,4.3
2018-11-21T07:11:05.408Z,4.3
2018-11-21T07:14:07.703Z,5.5
2018-11-21T07:17:05.090Z,4.3
2018-11-21T07:20:05.450Z,5.1
2018-11-21T07:23:05.310Z,4.2
2018-11-21T07:26:05.120Z,4.4
2018-11-21T07:29:04.886Z,4.8
2018-11-21T07:32:05.836Z,4.7
2018-11-21T07:35:05.189Z,4.5
2018-11-21T07:38:05.085Z,3.9
2018-11-21T07:41:04.983Z,4.2
2018-11-21T07:44:04.877Z,4
2018-11-21T07:47:04.987Z,4.2
2018-11-21T07:50:05.124Z,4.1
2018-11-21T07:53:04.921Z,4.5
2018-11-21T07:56:04.745Z,4.2
2018-11-21T07:59:05.013Z,4.5
2018-11-21T08:02:04.899Z,4.1
2018-11-21T08:05:05.077Z,4
2018-11-21T08:08:04.902Z,4.1
2018-11-21T08:11:05.136Z,4.1
2018-11-21T08:14:05.095Z,4.1
2018-11-21T08:17:04.814Z,4.3
2018-11-21T08:20:05.100Z,4
2018-11-21T08:23:05.333Z,4.2
2018-11-21T08:26:05.073Z,4.2
2018-11-21T08:29:05.289Z,4.2
2018-11-21T08:32:05.302Z,4.2
2018-11-21T08:35:05.085Z,4.2
2018-11-21T08:38:05.047Z,3.7
2018-11-21T08:41:05.593Z,3.9
2018-11-21T08:44:04.949Z,3.9
2018-11-21T08:47:05.291Z,4.1
2018-11-21T08:50:04.958Z,3.9
2018-11-21T08:53:05.443Z,4.2
2018-11-21T08:56:05.133Z,4.1
2018-11-21T08:59:04.917Z,3.9
2018-11-21T09:02:04.789Z,4
2018-11-21T09:05:04.934Z,4.2
2018-11-21T09:08:05.337Z,4.5
2018-11-21T09:11:05.337Z,3.8
2018-11-21T09:14:05.190Z,3.8
2018-11-21T09:17:05.109Z,4.2
2018-11-21T09:20:05.125Z,4.1
2018-11-21T09:23:05.250Z,3.9
2018-11-21T09:26:05.070Z,4.2
2018-11-21T09:29:04.790Z,3.9
2018-11-21T09:32:04.836Z,4
2018-11-21T09:35:05.000Z,4
2018-11-21T09:38:04.826Z,4.2
2018-11-21T09:41:05.114Z,4
2018-11-21T09:44:04.937Z,4.3
2018-11-21T09:47:04.871Z,3.8
2018-11-21T09:50:04.831Z,4.1
2018-11-21T09:53:04.912Z,4
2018-11-21T09:56:04.873Z,4.1
2018-11-21T09:59:04.998Z,3.8
2018-11-21T10:02:05.058Z,4.1
2018-11-21T10:05:04.799Z,3.9
2018-11-21T10:08:05.059Z,4
2018-11-21T10:11:05.384Z,3.6
2018-11-21T10:14:05.046Z,4.2
2018-11-21T10:17:04.890Z,4
2018-11-21T10:20:05.015Z,3.9
2018-11-21T10:23:04.968Z,4
2018-11-21T10:26:04.828Z,3.9
2018-11-21T10:29:05.835Z,3.7
2018-11-21T10:32:04.830Z,3.7
2018-11-21T10:35:05.092Z,3.8
2018-11-21T10:38:04.727Z,3.8
2018-11-21T10:41:04.829Z,4.1
2018-11-21T10:44:04.928Z,4.2
2018-11-21T10:47:04.972Z,3.9
2018-11-21T10:50:05.267Z,3.9
2018-11-21T10:53:04.873Z,3.6
2018-11-21T10:56:04.971Z,3.9
2018-11-21T10:59:05.091Z,3.9
2018-11-21T11:02:05.134Z,3.8
2018-11-21T11:05:04.842Z,3.8
2018-11-21T11:08:04.870Z,3.8
2018-11-21T11:11:04.992Z,3.7
2018-11-21T11:14:05.030Z,3.9
2018-11-21T11:17:04.668Z,4
2018-11-21T11:20:09.023Z,3.9
2018-11-21T11:23:04.773Z,3.8
2018-11-21T11:26:04.766Z,4
2018-11-21T11:29:04.934Z,3.9
2018-11-21T11:32:05.182Z,3.6
2018-11-21T11:35:04.999Z,3.9
2018-11-21T11:38:05.055Z,3.9
2018-11-21T11:41:04.757Z,3.8
2018-11-21T11:44:04.817Z,3.7
2018-11-21T11:47:04.926Z,3.8
2018-11-21T11:50:04.765Z,3.8
2018-11-21T11:53:04.783Z,3.8
2018-11-21T11:56:04.978Z,3.7
2018-11-21T11:59:04.765Z,3.7
2018-11-21T12:02:04.797Z,3.9
2018-11-21T12:05:04.936Z,3.8
2018-11-21T12:08:04.782Z,3.7
2018-11-21T12:11:04.822Z,3.8
2018-11-21T12:14:04.947Z,3.8
2018-11-21T12:17:05.141Z,4
2018-11-21T12:20:04.831Z,3.7
2018-11-21T12:23:05.100Z,3.9
2018-11-21T12:26:10.470Z,3.7
2018-11-21T12:29:04.829Z,3.9
2018-11-21T12:32:04.940Z,3.7
2018-11-21T12:35:04.712Z,3.9
2018-11-21T12:38:04.742Z,3.7
2018-11-21T12:41:05.133Z,3.8
2018-11-21T12:44:04.762Z,3.6
2018-11-21T12:47:05.033Z,3.8
2018-11-21T12:50:04.827Z,3.8
2018-11-21T12:53:04.849Z,4.1
2018-11-21T12:56:04.746Z,3.8
2018-11-21T12:59:04.943Z,3.7
2018-11-21T13:02:04.897Z,4
2018-11-21T13:05:04.832Z,3.8
2018-11-21T13:08:04.916Z,3.9
2018-11-21T13:11:04.787Z,3.6
2018-11-21T13:14:05.077Z,3.8
2018-11-21T13:17:04.997Z,4
2018-11-21T13:20:04.982Z,3.6
2018-11-21T13:23:04.986Z,3.6
2018-11-21T13:26:04.869Z,3.7
2018-11-21T13:29:04.690Z,3.9
2018-11-21T13:32:04.830Z,3.9
2018-11-21T13:35:04.736Z,3.8
2018-11-21T13:38:04.849Z,3.7
2018-11-21T13:41:04.862Z,3.9
2018-11-21T13:44:04.674Z,3.7
2018-11-21T13:47:05.211Z,3.6
2018-11-21T13:50:04.928Z,3.7
2018-11-21T13:53:04.945Z,3.7
2018-11-21T13:56:04.956Z,3.6
2018-11-21T13:59:05.090Z,3.6
2018-11-21T14:02:05.287Z,3.7
2018-11-21T14:05:04.831Z,3.7
2018-11-21T14:08:04.838Z,3.7
2018-11-21T14:11:05.273Z,3.6
2018-11-21T14:14:04.779Z,3.7
2018-11-21T14:17:04.903Z,3.7
2018-11-21T14:20:04.719Z,3.7
2018-11-21T14:23:05.079Z,3.5
2018-11-21T14:26:04.796Z,3.7
2018-11-21T14:29:04.892Z,3.5
2018-11-21T14:32:05.009Z,3.5
2018-11-21T14:35:04.824Z,3.6
2018-11-21T14:38:05.080Z,3.4
2018-11-21T14:41:05.110Z,3.5
2018-11-21T14:44:05.074Z,3.8
2018-11-21T14:47:04.780Z,3.5
2018-11-21T14:50:04.922Z,3.5
2018-11-21T14:53:05.468Z,3.7
2018-11-21T14:56:04.759Z,3.6
2018-11-21T14:59:04.751Z,3.6
2018-11-21T15:02:04.843Z,3.5
2018-11-21T15:05:04.833Z,3.7
2018-11-21T15:08:04.815Z,3.6
2018-11-21T15:11:04.793Z,3.6
2018-11-21T15:14:04.792Z,3.6
2018-11-21T15:17:04.954Z,3.6
2018-11-21T15:20:05.011Z,3.5
2018-11-21T15:23:04.883Z,3.6
2018-11-21T15:26:04.961Z,3.7
2018-11-21T15:29:04.605Z,8.3
2018-11-21T15:32:04.818Z,5.6
2018-11-21T15:35:04.847Z,5.3
2018-11-21T15:38:04.717Z,5.8
2018-11-21T15:41:04.836Z,3.5
2018-11-21T15:44:04.775Z,3.5
2018-11-21T15:47:04.656Z,4.3
2018-11-21T15:50:04.925Z,3.4
2018-11-21T15:53:04.557Z,3.7
2018-11-21T15:56:05.094Z,5.6
2018-11-21T15:59:04.800Z,6.4
2018-11-21T16:02:04.931Z,3.5
2018-11-21T16:05:04.646Z,3.5
2018-11-21T16:08:04.789Z,3.8
2018-11-21T16:11:04.505Z,4.8
2018-11-21T16:14:04.613Z,3.6
2018-11-21T16:17:04.802Z,3.5
2018-11-21T16:20:04.887Z,3.6
2018-11-21T16:23:04.687Z,3.6
2018-11-21T16:26:04.747Z,3.8
2018-11-21T16:29:04.648Z,4.2
2018-11-21T16:32:04.617Z,3.6
2018-11-21T16:35:09.001Z,3.9
2018-11-21T16:38:04.838Z,3.5
2018-11-21T16:41:04.585Z,3.6
2018-11-21T16:44:04.927Z,3.9
2018-11-21T16:47:04.965Z,4.2
2018-11-21T16:50:04.847Z,4.1
2018-11-21T16:53:05.406Z,3.8
2018-11-21T16:56:04.669Z,3.7
2018-11-21T16:59:04.747Z,3.8
2018-11-21T17:02:05.063Z,3.9
2018-11-21T17:05:04.997Z,3.7
2018-11-21T17:08:04.793Z,3.7
2018-11-21T17:11:05.009Z,4.1
2018-11-21T17:14:04.885Z,3.9
2018-11-21T17:17:04.868Z,3.9
2018-11-21T17:20:04.707Z,4.6
2018-11-21T17:23:05.223Z,4.2
2018-11-21T17:26:04.911Z,4
2018-11-21T17:29:09.135Z,3.7
2018-11-21T17:32:04.990Z,3.9
2018-11-21T17:35:04.902Z,3.8
2018-11-21T17:38:04.992Z,4.3
2018-11-21T17:41:04.874Z,5.3
2018-11-21T17:44:04.937Z,5.1
2018-11-21T17:47:04.687Z,5.9
2018-11-21T17:50:04.825Z,15.1
2018-11-21T17:53:04.654Z,10.8
2018-11-21T17:56:04.814Z,9.8
2018-11-21T17:59:04.874Z,8.4
2018-11-21T18:02:04.482Z,6.7
2018-11-21T18:05:08.934Z,5.3
2018-11-21T18:08:04.723Z,6.9
2018-11-21T18:11:04.818Z,5.9
2018-11-21T18:14:04.848Z,6.6
2018-11-21T18:17:04.663Z,6.1
2018-11-21T18:20:04.512Z,7.1
2018-11-21T18:23:05.780Z,4.6
2018-11-21T18:26:04.858Z,5
2018-11-21T18:29:04.735Z,5.9
2018-11-21T18:32:04.546Z,6.5
2018-11-21T18:35:04.895Z,4.7
2018-11-21T18:38:05.674Z,6
2018-11-21T18:41:05.069Z,4.4
2018-11-21T18:44:05.090Z,6.5
2018-11-21T18:47:05.239Z,4.8
2018-11-21T18:50:11.076Z,4.2
2018-11-21T18:53:04.946Z,5.6
2018-11-21T18:56:04.949Z,4.2
2018-11-21T18:59:04.972Z,4.8
2018-11-21T19:02:04.513Z,4.2
2018-11-21T19:05:04.800Z,4.3
2018-11-21T19:08:05.229Z,4
2018-11-21T19:11:05.029Z,4.9
2018-11-21T19:14:04.835Z,4.3
2018-11-21T19:17:04.799Z,4.3
2018-11-21T19:20:04.482Z,4.1
2018-11-21T19:23:04.580Z,4.1
2018-11-21T19:26:04.933Z,4.2
2018-11-21T19:29:05.079Z,3.9
2018-11-21T19:32:04.505Z,4.3
2018-11-21T19:35:04.634Z,4.4
2018-11-21T19:38:04.787Z,4.3
2018-11-21T19:41:04.528Z,4.3
2018-11-21T19:44:04.523Z,4.3
2018-11-21T19:47:04.614Z,6
2018-11-21T19:50:04.660Z,5.3
2018-11-21T19:53:05.032Z,4.4
2018-11-21T19:56:04.674Z,4.8
2018-11-21T19:59:04.928Z,4.5
2018-11-21T20:02:04.474Z,5.6
2018-11-21T20:05:04.842Z,4.6
2018-11-21T20:08:04.742Z,4.6
2018-11-21T20:11:04.781Z,4.5
2018-11-21T20:14:04.622Z,4.7
2018-11-21T20:17:05.044Z,7.9
2018-11-21T20:20:04.817Z,7.6
2018-11-21T20:23:07.013Z,10.7
2018-11-21T20:26:04.580Z,7.1
2018-11-21T20:29:04.865Z,6.6
2018-11-21T20:32:04.818Z,5.8
2018-11-21T20:35:08.878Z,7.5
2018-11-21T20:38:05.272Z,5.5
2018-11-21T20:41:04.437Z,8.7
2018-11-21T20:44:04.544Z,5.5
2018-11-21T20:47:04.962Z,5.6
2018-11-21T20:50:04.780Z,5.3
2018-11-21T20:53:04.476Z,7.4
2018-11-21T20:56:04.565Z,6.7
2018-11-21T20:59:04.760Z,13.9
2018-11-21T21:02:04.855Z,5
2018-11-21T21:05:04.495Z,5.7
2018-11-21T21:08:04.432Z,4.5
2018-11-21T21:11:04.392Z,5.3
2018-11-21T21:14:04.547Z,5.4
2018-11-21T21:17:04.454Z,4.5
2018-11-21T21:20:04.415Z,5.6
2018-11-21T21:23:04.679Z,4.8
2018-11-21T21:26:04.893Z,4.8
2018-11-21T21:29:04.818Z,4.9
2018-11-21T21:32:05.029Z,4.8
2018-11-21T21:35:04.898Z,4.8
2018-11-21T21:38:05.387Z,5.2
2018-11-21T21:41:04.968Z,5.1
2018-11-21T21:44:04.823Z,8.2
2018-11-21T21:47:04.869Z,5.3
2018-11-21T21:50:04.583Z,6.3
2018-11-21T21:53:04.795Z,4.7
2018-11-21T21:56:04.382Z,4.8
2018-11-21T21:59:04.938Z,4.7
2018-11-21T22:02:04.849Z,4.5
2018-11-21T22:05:04.409Z,4.8
2018-11-21T22:08:04.885Z,4.7
2018-11-21T22:11:04.933Z,5
2018-11-21T22:14:04.849Z,5.1
2018-11-21T22:17:04.728Z,5.3
2018-11-21T22:20:04.720Z,4.5
2018-11-21T22:23:04.445Z,4.9
2018-11-21T22:26:04.559Z,5.2
2018-11-21T22:29:04.662Z,4.7
2018-11-21T22:32:04.633Z,5.1
2018-11-21T22:35:04.622Z,5.3
2018-11-21T22:38:04.831Z,5
2018-11-21T22:41:04.513Z,4.8
2018-11-21T22:44:04.473Z,4.9
2018-11-21T22:47:04.573Z,5
2018-11-21T22:50:04.427Z,5.1
2018-11-21T22:53:04.660Z,5.1
2018-11-21T22:56:04.652Z,4.9
2018-11-21T22:59:04.441Z,5.1
2018-11-21T23:02:04.723Z,4.9
2018-11-21T23:05:05.278Z,5.2
2018-11-21T23:08:04.450Z,5.3
2018-11-21T23:11:04.963Z,4.5
2018-11-21T23:14:04.878Z,5.1
2018-11-21T23:17:04.872Z,5.1
2018-11-21T23:20:04.799Z,5.2
2018-11-21T23:23:04.873Z,5.2
2018-11-21T23:26:04.462Z,5
2018-11-21T23:29:04.576Z,5.1
2018-11-21T23:32:04.535Z,5.1
2018-11-21T23:35:04.809Z,5.3
2018-11-21T23:38:04.855Z,5.1
2018-11-21T23:41:04.424Z,5.5
2018-11-21T23:44:04.382Z,5.2
2018-11-21T23:47:04.540Z,5.1
2018-11-21T23:50:04.516Z,5.4
2018-11-21T23:53:04.623Z,5
2018-11-21T23:56:04.884Z,5.3
2018-11-21T23:59:04.447Z,5.1
